PWSweather.com
Personal Weather Stations
Station Observations
KNVELKO7
Elko, NV 89801

Elko, NV 89801

Lat: 40.963233, Lon: -115.592836

Elevation: 5230

Station Type: WS-2812

Latest ConditionsUpdated 11:22:18 PM PST Thursday, Feb 26, 2015
Currently Today's Max Today's Min Today's Average
Temperature 28.3°F-2.1°C 43.2°F6.2°C 28.3°F-2.1°C 35.0°F1.7°C
Dew Point 23.1°F-4.9°C 30.2°F-1.0°C 10.8°F-11.8°C 23.9°F-4.5°C
Winds Calm Calm 21.1 mph NNW34.0 kmh NNW - 5.4 mph 8.7 kmh
Wind Gusts -- 25.3 mph40.7 kmh - -
Humidity 81% 81% 44% 64%
Pressure 29.91 in1012.9 mb 30.06 in1017.9 mb 29.91 in1012.9 mb -
Hour Temp Dew Point Humidity Winds Wind Gusts Pressure Precip Precip Rate Daily Precip Total
11:22 PM 28.3°F-2.1°C 23.1°F-4.9°C 81% Calm Calm -- 29.91 in1012.9 mb 0.00 in0.0 mm 0.00 in/hr0.0 mm/hr 0.00 in0.0 mm
11:18 PM 28.3°F-2.1°C 23.1°F-4.9°C 81% Calm Calm 0.9 mph1.4 kmh 29.91 in1012.9 mb 0.00 in0.0 mm 0.00 in/hr0.0 mm/hr 0.00 in0.0 mm
11:13 PM 28.4°F-2.0°C 23.3°F-4.8°C 81% 0.4 mph WSW0.6 kmh WSW 0.9 mph1.4 kmh 29.91 in1012.9 mb 0.00 in0.0 mm 0.00 in/hr0.0 mm/hr 0.00 in0.0 mm
11:08 PM 28.4°F-2.0°C 23.3°F-4.8°C 81% Calm Calm -- 29.91 in1012.9 mb 0.00 in0.0 mm 0.00 in/hr0.0 mm/hr 0.00 in0.0 mm
11:03 PM 28.4°F-2.0°C 23.0°F-5.0°C 80% Calm Calm 4.0 mph6.4 kmh 29.91 in1012.9 mb 0.00 in0.0 mm 0.00 in/hr0.0 mm/hr 0.00 in0.0 mm
10:57 PM 28.4°F-2.0°C 23.0°F-5.0°C 80% 2.5 mph NW4.0 kmh NW 4.0 mph6.4 kmh 29.92 in1013.2 mb 0.00 in0.0 mm 0.00 in/hr0.0 mm/hr 0.00 in0.0 mm
10:52 PM 28.6°F-1.9°C 23.2°F-4.9°C 80% 0.8 mph NE1.3 kmh NE 1.3 mph2.1 kmh 29.92 in1013.2 mb 0.00 in0.0 mm 0.00 in/hr0.0 mm/hr 0.00 in0.0 mm
10:47 PM 28.6°F-1.9°C 23.0°F-5.0°C 79% 0.2 mph NNW0.3 kmh NNW 2.9 mph4.7 kmh 29.93 in1013.5 mb 0.00 in0.0 mm 0.00 in/hr0.0 mm/hr 0.00 in0.0 mm
10:42 PM 28.6°F-1.9°C 23.0°F-5.0°C 79% 2.5 mph E4.0 kmh E 2.9 mph4.7 kmh 29.92 in1013.2 mb 0.00 in0.0 mm 0.00 in/hr0.0 mm/hr 0.00 in0.0 mm
10:37 PM 28.4°F-2.0°C 22.8°F-5.1°C 79% 1.0 mph NE1.6 kmh NE 2.0 mph3.2 kmh 29.93 in1013.5 mb 0.00 in0.0 mm 0.00 in/hr0.0 mm/hr 0.00 in0.0 mm
10:32 PM 28.4°F-2.0°C 22.8°F-5.1°C 79% 2.0 mph NNE3.2 kmh NNE 2.0 mph3.2 kmh 29.93 in1013.5 mb 0.00 in0.0 mm 0.00 in/hr0.0 mm/hr 0.00 in0.0 mm
10:27 PM 28.4°F-2.0°C 22.8°F-5.1°C 79% 1.3 mph NNE2.1 kmh NNE 1.3 mph2.1 kmh 29.93 in1013.5 mb 0.00 in0.0 mm 0.00 in/hr0.0 mm/hr 0.00 in0.0 mm
10:22 PM 28.4°F-2.0°C 22.8°F-5.1°C 79% 0.4 mph NNE0.6 kmh NNE 0.7 mph1.1 kmh 29.93 in1013.5 mb 0.00 in0.0 mm 0.00 in/hr0.0 mm/hr 0.00 in0.0 mm
10:17 PM 28.6°F-1.9°C 23.0°F-5.0°C 79% Calm Calm 0.9 mph1.4 kmh 29.93 in1013.5 mb 0.00 in0.0 mm 0.00 in/hr0.0 mm/hr 0.00 in0.0 mm
10:12 PM 28.8°F-1.8°C 23.1°F-4.9°C 79% 0.6 mph ESE1.0 kmh ESE 1.8 mph2.9 kmh 29.93 in1013.5 mb 0.00 in0.0 mm 0.00 in/hr0.0 mm/hr 0.00 in0.0 mm
10:07 PM 28.8°F-1.8°C 23.1°F-4.9°C 79% 0.2 mph E0.3 kmh E 2.2 mph3.5 kmh 29.93 in1013.5 mb 0.00 in0.0 mm 0.00 in/hr0.0 mm/hr 0.00 in0.0 mm
10:02 PM 29.0°F-1.7°C 23.3°F-4.8°C 79% 1.5 mph NE2.4 kmh NE 2.7 mph4.3 kmh 29.93 in1013.5 mb 0.00 in0.0 mm 0.00 in/hr0.0 mm/hr 0.00 in0.0 mm
09:57 PM 29.2°F-1.6°C 23.1°F-4.9°C 78% 0.4 mph E0.6 kmh E 2.7 mph4.3 kmh 29.93 in1013.5 mb 0.00 in0.0 mm 0.00 in/hr0.0 mm/hr 0.00 in0.0 mm
09:52 PM 29.2°F-1.6°C 23.1°F-4.9°C 78% 1.0 mph NNE1.6 kmh NNE 1.8 mph2.9 kmh 29.93 in1013.5 mb 0.00 in0.0 mm 0.00 in/hr0.0 mm/hr 0.00 in0.0 mm
09:47 PM 29.2°F-1.6°C 23.1°F-4.9°C 78% 1.1 mph NE1.8 kmh NE 1.1 mph1.8 kmh 29.94 in1013.9 mb 0.00 in0.0 mm 0.00 in/hr0.0 mm/hr 0.00 in0.0 mm
09:42 PM 29.3°F-1.5°C 23.7°F-4.6°C 79% Calm Calm 0.4 mph0.6 kmh 29.94 in1013.9 mb 0.00 in0.0 mm 0.00 in/hr0.0 mm/hr 0.00 in0.0 mm
09:37 PM 29.5°F-1.4°C 23.5°F-4.7°C 78% 0.2 mph NW0.3 kmh NW 0.4 mph0.6 kmh 29.94 in1013.9 mb 0.00 in0.0 mm 0.00 in/hr0.0 mm/hr 0.00 in0.0 mm
09:32 PM 29.7°F-1.3°C 23.7°F-4.6°C 78% 0.2 mph 0.3 kmh 2.2 mph3.5 kmh 29.94 in1013.9 mb 0.00 in0.0 mm 0.00 in/hr0.0 mm/hr 0.00 in0.0 mm
09:27 PM 29.7°F-1.3°C 23.3°F-4.8°C 77% 0.2 mph 0.3 kmh 4.9 mph7.9 kmh 29.94 in1013.9 mb 0.00 in0.0 mm 0.00 in/hr0.0 mm/hr 0.00 in0.0 mm
09:22 PM 29.7°F-1.3°C 23.3°F-4.8°C 77% 2.7 mph 4.3 kmh 4.9 mph7.9 kmh 29.94 in1013.9 mb 0.00 in0.0 mm 0.00 in/hr0.0 mm/hr 0.00 in0.0 mm
09:17 PM 29.5°F-1.4°C 23.1°F-4.9°C 77% 2.2 mph 3.5 kmh 2.2 mph3.5 kmh 29.95 in1014.2 mb 0.00 in0.0 mm 0.00 in/hr0.0 mm/hr 0.00 in0.0 mm
09:12 PM 29.5°F-1.4°C 23.1°F-4.9°C 77% Calm Calm 3.8 mph6.1 kmh 29.95 in1014.2 mb 0.00 in0.0 mm 0.00 in/hr0.0 mm/hr 0.00 in0.0 mm
09:07 PM 29.5°F-1.4°C 22.9°F-5.1°C 76% 0.6 mph NE1.0 kmh NE 4.3 mph6.9 kmh 29.95 in1014.2 mb 0.00 in0.0 mm 0.00 in/hr0.0 mm/hr 0.00 in0.0 mm
09:02 PM 29.5°F-1.4°C 22.5°F-5.3°C 75% 4.2 mph N6.8 kmh N 4.3 mph6.9 kmh 29.95 in1014.2 mb 0.00 in0.0 mm 0.00 in/hr0.0 mm/hr 0.00 in0.0 mm
08:56 PM 29.7°F-1.3°C 23.1°F-4.9°C 76% 3.4 mph 5.5 kmh 3.4 mph5.5 kmh 29.95 in1014.2 mb 0.00 in0.0 mm 0.00 in/hr0.0 mm/hr 0.00 in0.0 mm
08:51 PM 29.9°F-1.2°C 23.5°F-4.7°C 77% 0.8 mph 1.3 kmh 0.9 mph1.4 kmh 29.95 in1014.2 mb 0.00 in0.0 mm 0.00 in/hr0.0 mm/hr 0.00 in0.0 mm
08:46 PM 29.9°F-1.2°C 23.5°F-4.7°C 77% Calm Calm -- 29.95 in1014.2 mb 0.00 in0.0 mm 0.00 in/hr0.0 mm/hr 0.00 in0.0 mm
08:42 PM 29.9°F-1.2°C 23.9°F-4.5°C 78% Calm Calm 0.2 mph0.3 kmh 29.95 in1014.2 mb 0.00 in0.0 mm 0.00 in/hr0.0 mm/hr 0.00 in0.0 mm
08:37 PM 29.9°F-1.2°C 23.5°F-4.7°C 77% 0.2 mph 0.3 kmh 0.2 mph0.3 kmh 29.95 in1014.2 mb 0.00 in0.0 mm 0.00 in/hr0.0 mm/hr 0.00 in0.0 mm
08:32 PM 30.1°F-1.1°C 24.0°F-4.4°C 78% 0.2 mph NW0.3 kmh NW 1.8 mph2.9 kmh 29.96 in1014.6 mb 0.00 in0.0 mm 0.00 in/hr0.0 mm/hr 0.00 in0.0 mm
08:27 PM 30.2°F-1.0°C 23.9°F-4.5°C 77% 1.0 mph NW1.6 kmh NW 1.8 mph2.9 kmh 29.96 in1014.6 mb 0.00 in0.0 mm 0.00 in/hr0.0 mm/hr 0.00 in0.0 mm
08:22 PM 30.4°F-0.9°C 24.0°F-4.4°C 77% 0.8 mph W1.3 kmh W 1.8 mph2.9 kmh 29.96 in1014.6 mb 0.00 in0.0 mm 0.00 in/hr0.0 mm/hr 0.00 in0.0 mm
08:17 PM 30.6°F-0.8°C 24.0°F-4.4°C 76% 0.8 mph W1.3 kmh W 1.8 mph2.9 kmh 29.96 in1014.6 mb 0.00 in0.0 mm 0.00 in/hr0.0 mm/hr 0.00 in0.0 mm
08:12 PM 30.8°F-0.7°C 24.1°F-4.4°C 76% 1.4 mph W2.3 kmh W 1.6 mph2.6 kmh 29.95 in1014.2 mb 0.00 in0.0 mm 0.00 in/hr0.0 mm/hr 0.00 in0.0 mm
08:07 PM 30.8°F-0.7°C 24.1°F-4.4°C 76% Calm Calm 0.2 mph0.3 kmh 29.95 in1014.2 mb 0.00 in0.0 mm 0.00 in/hr0.0 mm/hr 0.00 in0.0 mm
08:02 PM 31.0°F-0.6°C 24.3°F-4.3°C 76% Calm Calm 0.2 mph0.3 kmh 29.95 in1014.2 mb 0.00 in0.0 mm 0.00 in/hr0.0 mm/hr 0.00 in0.0 mm
07:56 PM 31.1°F-0.5°C 24.5°F-4.2°C 76% Calm Calm 2.2 mph3.5 kmh 29.95 in1014.2 mb 0.00 in0.0 mm 0.00 in/hr0.0 mm/hr 0.00 in0.0 mm
07:51 PM 31.3°F-0.4°C 24.7°F-4.1°C 76% 0.6 mph ENE1.0 kmh ENE 2.2 mph3.5 kmh 29.95 in1014.2 mb 0.00 in0.0 mm 0.00 in/hr0.0 mm/hr 0.00 in0.0 mm
07:46 PM 31.5°F-0.3°C 24.9°F-3.9°C 76% 1.5 mph ENE2.4 kmh ENE 1.8 mph2.9 kmh 29.96 in1014.6 mb 0.00 in0.0 mm 0.00 in/hr0.0 mm/hr 0.00 in0.0 mm
07:41 PM 31.7°F-0.2°C 24.7°F-4.1°C 75% 0.4 mph 0.6 kmh 2.0 mph3.2 kmh 29.96 in1014.6 mb 0.00 in0.0 mm 0.00 in/hr0.0 mm/hr 0.00 in0.0 mm
07:36 PM 31.9°F-0.1°C 25.2°F-3.8°C 76% 0.4 mph NNW0.6 kmh NNW 2.0 mph3.2 kmh 29.96 in1014.6 mb 0.00 in0.0 mm 0.00 in/hr0.0 mm/hr 0.00 in0.0 mm
07:31 PM 32.0°F0.0°C 25.0°F-3.9°C 75% Calm Calm 1.6 mph2.6 kmh 29.95 in1014.2 mb 0.00 in0.0 mm 0.00 in/hr0.0 mm/hr 0.00 in0.0 mm
07:26 PM 32.4°F0.2°C 25.4°F-3.7°C 75% Calm Calm 2.5 mph4.0 kmh 29.96 in1014.6 mb 0.00 in0.0 mm 0.00 in/hr0.0 mm/hr 0.00 in0.0 mm
07:21 PM 32.4°F0.2°C 25.4°F-3.7°C 75% 0.6 mph E1.0 kmh E 2.5 mph4.0 kmh 29.96 in1014.6 mb 0.00 in0.0 mm 0.00 in/hr0.0 mm/hr 0.00 in0.0 mm
07:16 PM 32.6°F0.3°C 25.2°F-3.8°C 74% 1.5 mph ESE2.4 kmh ESE 2.5 mph4.0 kmh 29.96 in1014.6 mb 0.00 in0.0 mm 0.00 in/hr0.0 mm/hr 0.00 in0.0 mm
07:12 PM 32.6°F0.3°C 25.5°F-3.6°C 75% 1.8 mph E2.9 kmh E 3.8 mph6.1 kmh 29.96 in1014.6 mb 0.00 in0.0 mm 0.00 in/hr0.0 mm/hr 0.00 in0.0 mm
07:07 PM 32.8°F0.4°C 25.7°F-3.5°C 75% 2.6 mph ENE4.2 kmh ENE 4.5 mph7.2 kmh 29.96 in1014.6 mb 0.00 in0.0 mm 0.00 in/hr0.0 mm/hr 0.00 in0.0 mm
07:02 PM 32.9°F0.5°C 25.2°F-3.8°C 73% 4.5 mph NE7.2 kmh NE 4.7 mph7.6 kmh 29.96 in1014.6 mb 0.00 in0.0 mm 0.00 in/hr0.0 mm/hr 0.00 in0.0 mm
06:56 PM 33.1°F0.6°C 25.0°F-3.9°C 72% 4.2 mph NNE6.8 kmh NNE 4.7 mph7.6 kmh 29.96 in1014.6 mb 0.00 in0.0 mm 0.00 in/hr0.0 mm/hr 0.00 in0.0 mm
06:51 PM 33.5°F0.8°C 25.0°F-3.9°C 71% 4.5 mph NE7.2 kmh NE 8.1 mph13.0 kmh 29.96 in1014.6 mb 0.00 in0.0 mm 0.00 in/hr0.0 mm/hr 0.00 in0.0 mm
06:46 PM 33.5°F0.8°C 25.4°F-3.7°C 72% 4.3 mph NNW6.9 kmh NNW 8.1 mph13.0 kmh 29.97 in1014.9 mb 0.00 in0.0 mm 0.00 in/hr0.0 mm/hr 0.00 in0.0 mm
06:41 PM 33.5°F0.8°C 25.4°F-3.7°C 72% 4.4 mph WNW7.1 kmh WNW 5.8 mph9.3 kmh 29.98 in1015.2 mb 0.00 in0.0 mm 0.00 in/hr0.0 mm/hr 0.00 in0.0 mm
06:36 PM 33.5°F0.8°C 25.0°F-3.9°C 71% 0.4 mph N0.6 kmh N 2.9 mph4.7 kmh 29.97 in1014.9 mb 0.00 in0.0 mm 0.00 in/hr0.0 mm/hr 0.00 in0.0 mm
06:31 PM 33.5°F0.8°C 25.0°F-3.9°C 71% 0.2 mph E0.3 kmh E 4.7 mph7.6 kmh 29.97 in1014.9 mb 0.00 in0.0 mm 0.00 in/hr0.0 mm/hr 0.00 in0.0 mm
06:26 PM 33.7°F0.9°C 25.2°F-3.8°C 71% 2.5 mph E4.0 kmh E 4.7 mph7.6 kmh 29.97 in1014.9 mb 0.00 in0.0 mm 0.00 in/hr0.0 mm/hr 0.00 in0.0 mm
06:21 PM 33.8°F1.0°C 25.0°F-3.9°C 70% 3.9 mph E6.3 kmh E 4.7 mph7.6 kmh 29.97 in1014.9 mb 0.00 in0.0 mm 0.00 in/hr0.0 mm/hr 0.00 in0.0 mm
06:16 PM 34.2°F1.2°C 25.4°F-3.7°C 70% 3.9 mph E6.3 kmh E 4.0 mph6.4 kmh 29.96 in1014.6 mb 0.00 in0.0 mm 0.00 in/hr0.0 mm/hr 0.00 in0.0 mm
06:11 PM 34.4°F1.3°C 25.6°F-3.6°C 70% 2.2 mph ENE3.5 kmh ENE 2.5 mph4.0 kmh 29.96 in1014.6 mb 0.00 in0.0 mm 0.00 in/hr0.0 mm/hr 0.00 in0.0 mm
06:06 PM 34.6°F1.4°C 25.4°F-3.7°C 69% 1.4 mph ESE2.3 kmh ESE 1.8 mph2.9 kmh 29.96 in1014.6 mb 0.00 in0.0 mm 0.00 in/hr0.0 mm/hr 0.00 in0.0 mm
06:01 PM 34.9°F1.6°C 25.4°F-3.7°C 68% 1.3 mph ESE2.1 kmh ESE 2.2 mph3.5 kmh 29.97 in1014.9 mb 0.00 in0.0 mm 0.00 in/hr0.0 mm/hr 0.00 in0.0 mm
05:56 PM 34.9°F1.6°C 25.4°F-3.7°C 68% 1.4 mph ESE2.3 kmh ESE 2.7 mph4.3 kmh 29.97 in1014.9 mb 0.00 in0.0 mm 0.00 in/hr0.0 mm/hr 0.00 in0.0 mm
05:51 PM 35.3°F1.8°C 25.4°F-3.7°C 67% 1.8 mph ESE2.9 kmh ESE 2.9 mph4.7 kmh 29.97 in1014.9 mb 0.00 in0.0 mm 0.00 in/hr0.0 mm/hr 0.00 in0.0 mm
05:46 PM 35.5°F1.9°C 25.6°F-3.6°C 67% 2.5 mph ESE4.0 kmh ESE 3.6 mph5.8 kmh 29.97 in1014.9 mb 0.00 in0.0 mm 0.00 in/hr0.0 mm/hr 0.00 in0.0 mm
05:41 PM 35.6°F2.0°C 25.7°F-3.5°C 67% 2.3 mph ESE3.7 kmh ESE 4.0 mph6.4 kmh 29.97 in1014.9 mb 0.00 in0.0 mm 0.00 in/hr0.0 mm/hr 0.00 in0.0 mm
05:36 PM 36.0°F2.2°C 26.1°F-3.3°C 67% 3.8 mph ESE6.1 kmh ESE 4.0 mph6.4 kmh 29.97 in1014.9 mb 0.00 in0.0 mm 0.00 in/hr0.0 mm/hr 0.00 in0.0 mm
05:31 PM 36.2°F2.3°C 26.3°F-3.2°C 67% 1.9 mph E3.1 kmh E 5.4 mph8.7 kmh 29.97 in1014.9 mb 0.00 in0.0 mm 0.00 in/hr0.0 mm/hr 0.00 in0.0 mm
05:26 PM 36.5°F2.5°C 25.9°F-3.4°C 65% 4.6 mph E7.4 kmh E 5.4 mph8.7 kmh 29.97 in1014.9 mb 0.00 in0.0 mm 0.00 in/hr0.0 mm/hr 0.00 in0.0 mm
05:21 PM 36.9°F2.7°C 26.6°F-3.0°C 66% 2.7 mph ESE4.3 kmh ESE 4.7 mph7.6 kmh 29.97 in1014.9 mb 0.00 in0.0 mm 0.00 in/hr0.0 mm/hr 0.00 in0.0 mm
05:16 PM 37.1°F2.8°C 26.4°F-3.1°C 65% 3.1 mph ESE5.0 kmh ESE 4.7 mph7.6 kmh 29.97 in1014.9 mb 0.00 in0.0 mm 0.00 in/hr0.0 mm/hr 0.00 in0.0 mm
05:11 PM 37.3°F2.9°C 26.6°F-3.0°C 65% 3.7 mph ESE6.0 kmh ESE 3.8 mph6.1 kmh 29.97 in1014.9 mb 0.00 in0.0 mm 0.00 in/hr0.0 mm/hr 0.00 in0.0 mm
05:06 PM 37.4°F3.0°C 26.7°F-2.9°C 65% 3.4 mph E5.5 kmh E 3.6 mph5.8 kmh 29.97 in1014.9 mb 0.00 in0.0 mm 0.00 in/hr0.0 mm/hr 0.00 in0.0 mm
05:01 PM 37.6°F3.1°C 26.9°F-2.8°C 65% 3.5 mph E5.6 kmh E 3.6 mph5.8 kmh 29.97 in1014.9 mb 0.00 in0.0 mm 0.00 in/hr0.0 mm/hr 0.00 in0.0 mm
04:55 PM 37.8°F3.2°C 26.6°F-3.0°C 64% 3.0 mph ENE4.8 kmh ENE 4.7 mph7.6 kmh 29.97 in1014.9 mb 0.00 in0.0 mm 0.00 in/hr0.0 mm/hr 0.00 in0.0 mm
04:50 PM 37.8°F3.2°C 26.6°F-3.0°C 64% 2.7 mph E4.3 kmh E 4.7 mph7.6 kmh 29.97 in1014.9 mb 0.00 in0.0 mm 0.00 in/hr0.0 mm/hr 0.00 in0.0 mm
04:45 PM 38.2°F3.4°C 26.7°F-2.9°C 63% 2.2 mph NE3.5 kmh NE 5.8 mph9.3 kmh 29.97 in1014.9 mb 0.00 in0.0 mm 0.00 in/hr0.0 mm/hr 0.00 in0.0 mm
04:41 PM 38.2°F3.4°C 26.7°F-2.9°C 63% 1.7 mph ENE2.7 kmh ENE 5.8 mph9.3 kmh 29.97 in1014.9 mb 0.00 in0.0 mm 0.00 in/hr0.0 mm/hr 0.00 in0.0 mm
04:36 PM 38.5°F3.6°C 26.9°F-2.8°C 63% 5.4 mph NE8.7 kmh NE 7.6 mph12.2 kmh 29.97 in1014.9 mb 0.00 in0.0 mm 0.00 in/hr0.0 mm/hr 0.00 in0.0 mm
04:31 PM 38.9°F3.8°C 26.9°F-2.8°C 62% 4.7 mph NNE7.6 kmh NNE 7.6 mph12.2 kmh 29.97 in1014.9 mb 0.00 in0.0 mm 0.00 in/hr0.0 mm/hr 0.00 in0.0 mm
04:26 PM 39.4°F4.1°C 26.6°F-3.0°C 60% 3.8 mph N6.1 kmh N 5.8 mph9.3 kmh 29.97 in1014.9 mb 0.00 in0.0 mm 0.00 in/hr0.0 mm/hr 0.00 in0.0 mm
04:21 PM 40.1°F4.5°C 26.9°F-2.8°C 59% 3.7 mph 6.0 kmh 5.4 mph8.7 kmh 29.97 in1014.9 mb 0.00 in0.0 mm 0.00 in/hr0.0 mm/hr 0.00 in0.0 mm
04:16 PM 40.9°F4.9°C 28.1°F-2.2°C 60% 4.5 mph NNW7.2 kmh NNW 4.5 mph7.2 kmh 29.97 in1014.9 mb 0.00 in0.0 mm 0.00 in/hr0.0 mm/hr 0.00 in0.0 mm
04:11 PM 40.9°F4.9°C 28.1°F-2.2°C 60% 2.5 mph ESE4.0 kmh ESE 3.1 mph5.0 kmh 29.96 in1014.6 mb 0.00 in0.0 mm 0.00 in/hr0.0 mm/hr 0.00 in0.0 mm
04:06 PM 40.9°F4.9°C 28.4°F-2.0°C 61% 2.5 mph SE4.0 kmh SE 4.3 mph6.9 kmh 29.96 in1014.6 mb 0.00 in0.0 mm 0.00 in/hr0.0 mm/hr 0.00 in0.0 mm
04:01 PM 40.7°F4.8°C 28.3°F-2.1°C 61% 3.8 mph SE6.1 kmh SE 4.3 mph6.9 kmh 29.96 in1014.6 mb 0.00 in0.0 mm 0.00 in/hr0.0 mm/hr 0.00 in0.0 mm
03:55 PM 40.3°F4.6°C 28.3°F-2.1°C 62% Calm Calm 2.5 mph4.0 kmh 29.96 in1014.6 mb 0.00 in0.0 mm 0.00 in/hr0.0 mm/hr 0.00 in0.0 mm
03:50 PM 40.1°F4.5°C 28.1°F-2.2°C 62% 0.4 mph 0.6 kmh 2.7 mph4.3 kmh 29.96 in1014.6 mb 0.00 in0.0 mm 0.00 in/hr0.0 mm/hr 0.00 in0.0 mm
03:45 PM 39.8°F4.3°C 28.2°F-2.1°C 63% 0.9 mph NNW1.4 kmh NNW 3.6 mph5.8 kmh 29.96 in1014.6 mb 0.00 in0.0 mm 0.00 in/hr0.0 mm/hr 0.00 in0.0 mm
03:40 PM 39.6°F4.2°C 28.0°F-2.2°C 63% 2.7 mph NNW4.3 kmh NNW 5.6 mph9.0 kmh 29.96 in1014.6 mb 0.00 in0.0 mm 0.00 in/hr0.0 mm/hr 0.00 in0.0 mm
03:35 PM 39.2°F4.0°C 27.6°F-2.4°C 63% 4.8 mph N7.7 kmh N 9.2 mph14.8 kmh 29.96 in1014.6 mb 0.00 in0.0 mm 0.00 in/hr0.0 mm/hr 0.00 in0.0 mm
03:30 PM 39.2°F4.0°C 27.6°F-2.4°C 63% 7.6 mph NNE12.2 kmh NNE 10.5 mph16.9 kmh 29.96 in1014.6 mb 0.00 in0.0 mm 0.00 in/hr0.0 mm/hr 0.00 in0.0 mm
03:25 PM 39.1°F3.9°C 27.5°F-2.5°C 63% 6.9 mph 11.1 kmh 12.1 mph19.5 kmh 29.96 in1014.6 mb 0.00 in0.0 mm 0.00 in/hr0.0 mm/hr 0.00 in0.0 mm
03:20 PM 39.2°F4.0°C 27.6°F-2.4°C 63% 9.3 mph 15.0 kmh 13.4 mph21.6 kmh 29.96 in1014.6 mb 0.00 in0.0 mm 0.00 in/hr0.0 mm/hr 0.00 in0.0 mm
03:15 PM 39.2°F4.0°C 27.6°F-2.4°C 63% 11.6 mph N18.7 kmh N 13.4 mph21.6 kmh 29.97 in1014.9 mb 0.00 in0.0 mm 0.00 in/hr0.0 mm/hr 0.00 in0.0 mm
03:10 PM 39.2°F4.0°C 28.4°F-2.0°C 65% 12.3 mph NE19.8 kmh NE 12.8 mph20.6 kmh 29.97 in1014.9 mb 0.00 in0.0 mm 0.00 in/hr0.0 mm/hr 0.00 in0.0 mm
03:05 PM 39.2°F4.0°C 28.7°F-1.8°C 66% 10.6 mph NNE17.1 kmh NNE 16.1 mph25.9 kmh 29.97 in1014.9 mb 0.00 in0.0 mm 0.00 in/hr0.0 mm/hr 0.00 in0.0 mm
03:01 PM 39.2°F4.0°C 28.4°F-2.0°C 65% 13.6 mph 21.9 kmh 16.1 mph25.9 kmh 29.97 in1014.9 mb 0.00 in0.0 mm 0.00 in/hr0.0 mm/hr 0.00 in0.0 mm
02:55 PM 40.0°F4.4°C 28.4°F-2.0°C 63% 10.1 mph NNE16.3 kmh NNE 11.0 mph17.7 kmh 29.97 in1014.9 mb 0.00 in0.0 mm 0.00 in/hr0.0 mm/hr 0.00 in0.0 mm
02:50 PM 40.1°F4.5°C 27.4°F-2.6°C 60% 5.5 mph NNW8.9 kmh NNW 11.0 mph17.7 kmh 29.97 in1014.9 mb 0.00 in0.0 mm 0.00 in/hr0.0 mm/hr 0.00 in0.0 mm
02:45 PM 40.1°F4.5°C 28.1°F-2.2°C 62% 7.7 mph NE12.4 kmh NE 15.7 mph25.3 kmh 29.97 in1014.9 mb 0.00 in0.0 mm 0.00 in/hr0.0 mm/hr 0.00 in0.0 mm
02:40 PM 40.3°F4.6°C 28.7°F-1.8°C 63% 8.9 mph ENE14.3 kmh ENE 25.3 mph40.7 kmh 29.97 in1014.9 mb 0.00 in0.0 mm 0.00 in/hr0.0 mm/hr 0.00 in0.0 mm
02:35 PM 42.1°F5.6°C 27.9°F-2.3°C 57% 21.1 mph NNW34.0 kmh NNW 25.3 mph40.7 kmh 29.97 in1014.9 mb 0.00 in0.0 mm 0.00 in/hr0.0 mm/hr 0.00 in0.0 mm
02:30 PM 42.5°F5.8°C 29.2°F-1.6°C 59% 7.1 mph NW11.4 kmh NW 10.5 mph16.9 kmh 29.97 in1014.9 mb 0.00 in0.0 mm 0.00 in/hr0.0 mm/hr 0.00 in0.0 mm
02:25 PM 41.9°F5.5°C 29.9°F-1.2°C 62% 4.3 mph WSW6.9 kmh WSW 6.9 mph11.1 kmh 29.97 in1014.9 mb 0.00 in0.0 mm 0.00 in/hr0.0 mm/hr 0.00 in0.0 mm
02:20 PM 41.2°F5.1°C 29.5°F-1.4°C 63% 3.1 mph S5.0 kmh S 6.9 mph11.1 kmh 29.97 in1014.9 mb 0.00 in0.0 mm 0.00 in/hr0.0 mm/hr 0.00 in0.0 mm
02:15 PM 40.5°F4.7°C 28.9°F-1.7°C 63% 2.9 mph WSW4.7 kmh WSW 7.2 mph11.6 kmh 29.97 in1014.9 mb 0.00 in0.0 mm 0.00 in/hr0.0 mm/hr 0.00 in0.0 mm
02:10 PM 40.0°F4.4°C 28.7°F-1.8°C 64% 5.2 mph NNW8.4 kmh NNW 10.3 mph16.6 kmh 29.98 in1015.2 mb 0.00 in0.0 mm 0.00 in/hr0.0 mm/hr 0.00 in0.0 mm
02:05 PM 39.2°F4.0°C 28.7°F-1.8°C 66% 10.1 mph NNW16.3 kmh NNW 10.3 mph16.6 kmh 29.98 in1015.2 mb 0.00 in0.0 mm 0.00 in/hr0.0 mm/hr 0.00 in0.0 mm
02:00 PM 38.7°F3.7°C 29.0°F-1.7°C 68% 5.7 mph NNW9.2 kmh NNW 19.2 mph30.9 kmh 29.97 in1014.9 mb 0.00 in0.0 mm 0.00 in/hr0.0 mm/hr 0.00 in0.0 mm
01:55 PM 38.5°F3.6°C 28.8°F-1.8°C 68% 8.9 mph 14.3 kmh 19.2 mph30.9 kmh 29.98 in1015.2 mb 0.00 in0.0 mm 0.00 in/hr0.0 mm/hr 0.00 in0.0 mm
01:50 PM 38.9°F3.8°C 29.5°F-1.4°C 69% 18.0 mph 29.0 kmh 20.6 mph33.2 kmh 29.98 in1015.2 mb 0.00 in0.0 mm 0.00 in/hr0.0 mm/hr 0.00 in0.0 mm
01:45 PM 39.2°F4.0°C 30.2°F-1.0°C 70% 18.0 mph N29.0 kmh N 21.5 mph34.6 kmh 29.98 in1015.2 mb 0.00 in0.0 mm 0.00 in/hr0.0 mm/hr 0.00 in0.0 mm
01:40 PM 40.0°F4.4°C 29.8°F-1.2°C 67% 19.5 mph N31.4 kmh N 21.5 mph34.6 kmh 29.97 in1014.9 mb 0.00 in0.0 mm 0.00 in/hr0.0 mm/hr 0.00 in0.0 mm
01:35 PM 41.2°F5.1°C 28.8°F-1.8°C 61% 16.8 mph N27.0 kmh N 21.3 mph34.3 kmh 29.97 in1014.9 mb 0.00 in0.0 mm 0.00 in/hr0.0 mm/hr 0.00 in0.0 mm
01:30 PM 42.1°F5.6°C 27.9°F-2.3°C 57% 14.8 mph 23.8 kmh 17.2 mph27.7 kmh 29.97 in1014.9 mb 0.00 in0.0 mm 0.00 in/hr0.0 mm/hr 0.00 in0.0 mm
01:25 PM 43.2°F6.2°C 27.2°F-2.7°C 53% 9.8 mph NW15.8 kmh NW 18.8 mph30.3 kmh 29.98 in1015.2 mb 0.00 in0.0 mm 0.00 in/hr0.0 mm/hr 0.00 in0.0 mm
01:20 PM 42.8°F6.0°C 24.5°F-4.2°C 48% 16.0 mph NW25.7 kmh NW 18.8 mph30.3 kmh 29.97 in1014.9 mb 0.00 in0.0 mm 0.00 in/hr0.0 mm/hr 0.00 in0.0 mm
01:15 PM 42.1°F5.6°C 27.5°F-2.5°C 56% 6.4 mph NNW10.3 kmh NNW 12.1 mph19.5 kmh 29.98 in1015.2 mb 0.00 in0.0 mm 0.00 in/hr0.0 mm/hr 0.00 in0.0 mm
01:10 PM 41.8°F5.4°C 27.2°F-2.7°C 56% 4.6 mph N7.4 kmh N 12.8 mph20.6 kmh 29.98 in1015.2 mb 0.00 in0.0 mm 0.00 in/hr0.0 mm/hr 0.00 in0.0 mm
01:05 PM 41.4°F5.2°C 27.3°F-2.6°C 57% 8.8 mph N14.2 kmh N 13.6 mph21.9 kmh 29.98 in1015.2 mb 0.00 in0.0 mm 0.00 in/hr0.0 mm/hr 0.00 in0.0 mm
01:00 PM 41.4°F5.2°C 27.7°F-2.4°C 58% 10.7 mph 17.2 kmh 16.1 mph25.9 kmh 29.98 in1015.2 mb 0.00 in0.0 mm 0.00 in/hr0.0 mm/hr 0.00 in0.0 mm
12:54 PM 40.9°F4.9°C 28.4°F-2.0°C 61% 13.6 mph N21.9 kmh N 16.1 mph25.9 kmh 29.98 in1015.2 mb 0.00 in0.0 mm 0.00 in/hr0.0 mm/hr 0.00 in0.0 mm
12:49 PM 40.7°F4.8°C 27.5°F-2.5°C 59% 12.1 mph N19.5 kmh N 18.6 mph29.9 kmh 29.98 in1015.2 mb 0.00 in0.0 mm 0.00 in/hr0.0 mm/hr 0.00 in0.0 mm
12:44 PM 41.4°F5.2°C 25.9°F-3.4°C 54% 12.4 mph NNW20.0 kmh NNW 18.6 mph29.9 kmh 29.99 in1015.6 mb 0.00 in0.0 mm 0.00 in/hr0.0 mm/hr 0.00 in0.0 mm
12:39 PM 41.8°F5.4°C 26.3°F-3.2°C 54% 14.3 mph NNW23.0 kmh NNW 15.7 mph25.3 kmh 29.99 in1015.6 mb 0.00 in0.0 mm 0.00 in/hr0.0 mm/hr 0.00 in0.0 mm
12:34 PM 41.8°F5.4°C 26.7°F-2.9°C 55% 11.9 mph WNW19.2 kmh WNW 15.7 mph25.3 kmh 29.99 in1015.6 mb 0.00 in0.0 mm 0.00 in/hr0.0 mm/hr 0.00 in0.0 mm
12:29 PM 41.4°F5.2°C 27.7°F-2.4°C 58% 7.6 mph WSW12.2 kmh WSW 12.3 mph19.8 kmh 29.99 in1015.6 mb 0.00 in0.0 mm 0.00 in/hr0.0 mm/hr 0.00 in0.0 mm
12:25 PM 40.9°F4.9°C 27.6°F-2.4°C 59% 8.0 mph N12.9 kmh N 12.3 mph19.8 kmh 29.99 in1015.6 mb 0.00 in0.0 mm 0.00 in/hr0.0 mm/hr 0.00 in0.0 mm
12:20 PM 40.5°F4.7°C 27.7°F-2.4°C 60% 7.8 mph NW12.6 kmh NW 13.6 mph21.9 kmh 30.00 in1015.9 mb 0.00 in0.0 mm 0.00 in/hr0.0 mm/hr 0.00 in0.0 mm
12:15 PM 40.0°F4.4°C 27.5°F-2.5°C 61% 9.4 mph W15.1 kmh W 13.6 mph21.9 kmh 30.00 in1015.9 mb 0.00 in0.0 mm 0.00 in/hr0.0 mm/hr 0.00 in0.0 mm
12:10 PM 39.8°F4.3°C 28.2°F-2.1°C 63% 10.0 mph NW16.1 kmh NW 11.4 mph18.3 kmh 30.00 in1015.9 mb 0.00 in0.0 mm 0.00 in/hr0.0 mm/hr 0.00 in0.0 mm
12:05 PM 39.8°F4.3°C 28.2°F-2.1°C 63% 10.4 mph W16.7 kmh W 11.0 mph17.7 kmh 30.00 in1015.9 mb 0.00 in0.0 mm 0.00 in/hr0.0 mm/hr 0.00 in0.0 mm
12:00 PM 39.2°F4.0°C 28.0°F-2.2°C 64% 7.5 mph SSW12.1 kmh SSW 13.0 mph20.9 kmh 30.01 in1016.3 mb 0.00 in0.0 mm 0.00 in/hr0.0 mm/hr 0.00 in0.0 mm
11:54 AM 38.5°F3.6°C 28.1°F-2.2°C 66% 9.8 mph WSW15.8 kmh WSW 15.4 mph24.8 kmh 30.01 in1016.3 mb 0.00 in0.0 mm 0.00 in/hr0.0 mm/hr 0.00 in0.0 mm
11:49 AM 38.5°F3.6°C 28.4°F-2.0°C 67% 14.1 mph WSW22.7 kmh WSW 20.4 mph32.8 kmh 30.01 in1016.3 mb 0.00 in0.0 mm 0.00 in/hr0.0 mm/hr 0.00 in0.0 mm
11:44 AM 38.5°F3.6°C 28.4°F-2.0°C 67% 15.4 mph WSW24.8 kmh WSW 21.5 mph34.6 kmh 30.01 in1016.3 mb 0.00 in0.0 mm 0.00 in/hr0.0 mm/hr 0.00 in0.0 mm
11:39 AM 38.5°F3.6°C 28.8°F-1.8°C 68% 17.5 mph W28.2 kmh W 21.5 mph34.6 kmh 30.01 in1016.3 mb 0.00 in0.0 mm 0.00 in/hr0.0 mm/hr 0.00 in0.0 mm
11:34 AM 38.9°F3.8°C 27.6°F-2.4°C 64% 18.0 mph W29.0 kmh W 19.2 mph30.9 kmh 30.01 in1016.3 mb 0.00 in0.0 mm 0.00 in/hr0.0 mm/hr 0.00 in0.0 mm
11:29 AM 38.9°F3.8°C 27.3°F-2.6°C 63% 15.6 mph W25.1 kmh W 17.9 mph28.8 kmh 30.01 in1016.3 mb 0.00 in0.0 mm 0.00 in/hr0.0 mm/hr 0.00 in0.0 mm
11:24 AM 39.1°F3.9°C 27.1°F-2.7°C 62% 13.3 mph W21.4 kmh W 17.9 mph28.8 kmh 30.01 in1016.3 mb 0.00 in0.0 mm 0.00 in/hr0.0 mm/hr 0.00 in0.0 mm
11:19 AM 39.6°F4.2°C 27.2°F-2.7°C 61% 15.0 mph W24.1 kmh W 15.0 mph24.1 kmh 30.02 in1016.6 mb 0.00 in0.0 mm 0.00 in/hr0.0 mm/hr 0.00 in0.0 mm
11:14 AM 39.8°F4.3°C 26.1°F-3.3°C 58% 9.6 mph WSW15.4 kmh WSW 13.9 mph22.4 kmh 30.02 in1016.6 mb 0.00 in0.0 mm 0.00 in/hr0.0 mm/hr 0.00 in0.0 mm
11:09 AM 40.0°F4.4°C 26.7°F-2.9°C 59% 12.4 mph W20.0 kmh W 15.9 mph25.6 kmh 30.02 in1016.6 mb 0.00 in0.0 mm 0.00 in/hr0.0 mm/hr 0.00 in0.0 mm
11:04 AM 40.3°F4.6°C 27.5°F-2.5°C 60% 12.6 mph WSW20.3 kmh WSW 15.9 mph25.6 kmh 30.02 in1016.6 mb 0.00 in0.0 mm 0.00 in/hr0.0 mm/hr 0.00 in0.0 mm
10:58 AM 40.0°F4.4°C 27.5°F-2.5°C 61% 11.0 mph WSW17.7 kmh WSW 12.3 mph19.8 kmh 30.02 in1016.6 mb 0.00 in0.0 mm 0.00 in/hr0.0 mm/hr 0.00 in0.0 mm
10:54 AM 39.2°F4.0°C 26.8°F-2.9°C 61% 9.1 mph WSW14.6 kmh WSW 12.1 mph19.5 kmh 30.02 in1016.6 mb 0.00 in0.0 mm 0.00 in/hr0.0 mm/hr 0.00 in0.0 mm
10:49 AM 39.1°F3.9°C 26.6°F-3.0°C 61% 8.9 mph WSW14.3 kmh WSW 12.5 mph20.1 kmh 30.02 in1016.6 mb 0.00 in0.0 mm 0.00 in/hr0.0 mm/hr 0.00 in0.0 mm
10:44 AM 39.1°F3.9°C 26.6°F-3.0°C 61% 9.4 mph WSW15.1 kmh WSW 13.2 mph21.2 kmh 30.03 in1016.9 mb 0.00 in0.0 mm 0.00 in/hr0.0 mm/hr 0.00 in0.0 mm
10:39 AM 39.2°F4.0°C 26.8°F-2.9°C 61% 9.3 mph WSW15.0 kmh WSW 13.4 mph21.6 kmh 30.03 in1016.9 mb 0.00 in0.0 mm 0.00 in/hr0.0 mm/hr 0.00 in0.0 mm
10:34 AM 39.2°F4.0°C 27.2°F-2.7°C 62% 10.6 mph WSW17.1 kmh WSW 13.4 mph21.6 kmh 30.03 in1016.9 mb 0.00 in0.0 mm 0.00 in/hr0.0 mm/hr 0.00 in0.0 mm
10:29 AM 38.9°F3.8°C 26.6°F-3.0°C 61% 11.4 mph SW18.3 kmh SW 12.1 mph19.5 kmh 30.03 in1016.9 mb 0.00 in0.0 mm 0.00 in/hr0.0 mm/hr 0.00 in0.0 mm
10:24 AM 38.5°F3.6°C 26.6°F-3.0°C 62% 9.8 mph WSW15.8 kmh WSW 10.7 mph17.2 kmh 30.03 in1016.9 mb 0.00 in0.0 mm 0.00 in/hr0.0 mm/hr 0.00 in0.0 mm
10:19 AM 38.3°F3.5°C 26.4°F-3.1°C 62% 8.9 mph WSW14.3 kmh WSW 10.7 mph17.2 kmh 30.03 in1016.9 mb 0.00 in0.0 mm 0.00 in/hr0.0 mm/hr 0.00 in0.0 mm
10:14 AM 38.3°F3.5°C 26.4°F-3.1°C 62% 8.1 mph W13.0 kmh W 11.0 mph17.7 kmh 30.03 in1016.9 mb 0.00 in0.0 mm 0.00 in/hr0.0 mm/hr 0.00 in0.0 mm
10:09 AM 38.3°F3.5°C 26.8°F-2.9°C 63% 9.8 mph WNW15.8 kmh WNW 11.0 mph17.7 kmh 30.03 in1016.9 mb 0.00 in0.0 mm 0.00 in/hr0.0 mm/hr 0.00 in0.0 mm
10:04 AM 38.2°F3.4°C 26.7°F-2.9°C 63% 8.8 mph WNW14.2 kmh WNW 12.5 mph20.1 kmh 30.04 in1017.3 mb 0.00 in0.0 mm 0.00 in/hr0.0 mm/hr 0.00 in0.0 mm
09:58 AM 37.8°F3.2°C 26.3°F-3.2°C 63% 7.3 mph NW11.7 kmh NW 13.6 mph21.9 kmh 30.04 in1017.3 mb 0.00 in0.0 mm 0.00 in/hr0.0 mm/hr 0.00 in0.0 mm
09:53 AM 37.6°F3.1°C 26.1°F-3.3°C 63% 10.6 mph W17.1 kmh W 15.7 mph25.3 kmh 30.04 in1017.3 mb 0.00 in0.0 mm 0.00 in/hr0.0 mm/hr 0.00 in0.0 mm
09:48 AM 37.8°F3.2°C 26.3°F-3.2°C 63% 13.9 mph WNW22.4 kmh WNW 15.7 mph25.3 kmh 30.04 in1017.3 mb 0.00 in0.0 mm 0.00 in/hr0.0 mm/hr 0.00 in0.0 mm
09:43 AM 37.8°F3.2°C 26.3°F-3.2°C 63% 10.6 mph WNW17.1 kmh WNW 11.9 mph19.2 kmh 30.04 in1017.3 mb 0.00 in0.0 mm 0.00 in/hr0.0 mm/hr 0.00 in0.0 mm
09:38 AM 37.8°F3.2°C 26.3°F-3.2°C 63% 9.8 mph W15.8 kmh W 11.9 mph19.2 kmh 30.04 in1017.3 mb 0.00 in0.0 mm 0.00 in/hr0.0 mm/hr 0.00 in0.0 mm
09:33 AM 37.6°F3.1°C 26.1°F-3.3°C 63% 6.5 mph NW10.5 kmh NW 10.3 mph16.6 kmh 30.04 in1017.3 mb 0.00 in0.0 mm 0.00 in/hr0.0 mm/hr 0.00 in0.0 mm
09:28 AM 37.8°F3.2°C 25.9°F-3.4°C 62% 10.0 mph NW16.1 kmh NW 11.6 mph18.7 kmh 30.04 in1017.3 mb 0.00 in0.0 mm 0.00 in/hr0.0 mm/hr 0.00 in0.0 mm
09:24 AM 37.8°F3.2°C 25.9°F-3.4°C 62% 8.4 mph NW13.5 kmh NW 11.6 mph18.7 kmh 30.04 in1017.3 mb 0.00 in0.0 mm 0.00 in/hr0.0 mm/hr 0.00 in0.0 mm
09:19 AM 38.0°F3.3°C 26.5°F-3.1°C 63% 9.5 mph W15.3 kmh W 11.4 mph18.3 kmh 30.03 in1016.9 mb 0.00 in0.0 mm 0.00 in/hr0.0 mm/hr 0.00 in0.0 mm
09:14 AM 38.2°F3.4°C 26.7°F-2.9°C 63% 10.0 mph W16.1 kmh W 10.3 mph16.6 kmh 30.04 in1017.3 mb 0.00 in0.0 mm 0.00 in/hr0.0 mm/hr 0.00 in0.0 mm
09:09 AM 38.0°F3.3°C 26.5°F-3.1°C 63% 6.2 mph W10.0 kmh W 9.4 mph15.1 kmh 30.04 in1017.3 mb 0.00 in0.0 mm 0.00 in/hr0.0 mm/hr 0.00 in0.0 mm
09:04 AM 37.6°F3.1°C 26.1°F-3.3°C 63% 7.5 mph NW12.1 kmh NW 14.3 mph23.0 kmh 30.04 in1017.3 mb 0.00 in0.0 mm 0.00 in/hr0.0 mm/hr 0.00 in0.0 mm
08:58 AM 37.4°F3.0°C 26.4°F-3.1°C 64% 10.6 mph W17.1 kmh W 14.3 mph23.0 kmh 30.04 in1017.3 mb 0.00 in0.0 mm 0.00 in/hr0.0 mm/hr 0.00 in0.0 mm
08:53 AM 37.1°F2.8°C 26.4°F-3.1°C 65% 9.9 mph W15.9 kmh W 12.1 mph19.5 kmh 30.04 in1017.3 mb 0.00 in0.0 mm 0.00 in/hr0.0 mm/hr 0.00 in0.0 mm
08:48 AM 36.9°F2.7°C 26.6°F-3.0°C 66% 9.1 mph W14.6 kmh W 12.5 mph20.1 kmh 30.04 in1017.3 mb 0.00 in0.0 mm 0.00 in/hr0.0 mm/hr 0.00 in0.0 mm
08:43 AM 36.7°F2.6°C 26.5°F-3.1°C 66% 10.6 mph WSW17.1 kmh WSW 15.0 mph24.1 kmh 30.04 in1017.3 mb 0.00 in0.0 mm 0.00 in/hr0.0 mm/hr 0.00 in0.0 mm
08:38 AM 36.5°F2.5°C 26.7°F-2.9°C 67% 8.1 mph W13.0 kmh W 15.0 mph24.1 kmh 30.04 in1017.3 mb 0.00 in0.0 mm 0.00 in/hr0.0 mm/hr 0.00 in0.0 mm
08:33 AM 36.5°F2.5°C 26.7°F-2.9°C 67% 11.5 mph W18.5 kmh W 13.4 mph21.6 kmh 30.04 in1017.3 mb 0.00 in0.0 mm 0.00 in/hr0.0 mm/hr 0.00 in0.0 mm
08:28 AM 36.4°F2.4°C 26.5°F-3.1°C 67% 8.9 mph WSW14.3 kmh WSW 13.4 mph21.6 kmh 30.04 in1017.3 mb 0.00 in0.0 mm 0.00 in/hr0.0 mm/hr 0.00 in0.0 mm
08:23 AM 36.2°F2.3°C 26.3°F-3.2°C 67% 7.7 mph WSW12.4 kmh WSW 9.6 mph15.4 kmh 30.04 in1017.3 mb 0.00 in0.0 mm 0.00 in/hr0.0 mm/hr 0.00 in0.0 mm
08:18 AM 36.0°F2.2°C 26.1°F-3.3°C 67% 7.6 mph WSW12.2 kmh WSW 10.1 mph16.3 kmh 30.04 in1017.3 mb 0.00 in0.0 mm 0.00 in/hr0.0 mm/hr 0.00 in0.0 mm
08:13 AM 35.8°F2.1°C 25.9°F-3.4°C 67% 8.7 mph WSW14.0 kmh WSW 13.6 mph21.9 kmh 30.04 in1017.3 mb 0.00 in0.0 mm 0.00 in/hr0.0 mm/hr 0.00 in0.0 mm
08:08 AM 35.6°F2.0°C 25.7°F-3.5°C 67% 9.1 mph WSW14.6 kmh WSW 14.5 mph23.3 kmh 30.04 in1017.3 mb 0.00 in0.0 mm 0.00 in/hr0.0 mm/hr 0.00 in0.0 mm
08:03 AM 35.6°F2.0°C 26.1°F-3.3°C 68% 12.1 mph WSW19.5 kmh WSW 14.5 mph23.3 kmh 30.04 in1017.3 mb 0.00 in0.0 mm 0.00 in/hr0.0 mm/hr 0.00 in0.0 mm
07:58 AM 35.6°F2.0°C 26.1°F-3.3°C 68% 13.5 mph WSW21.7 kmh WSW 15.0 mph24.1 kmh 30.03 in1016.9 mb 0.00 in0.0 mm 0.00 in/hr0.0 mm/hr 0.00 in0.0 mm
07:53 AM 35.6°F2.0°C 26.1°F-3.3°C 68% 12.6 mph W20.3 kmh W 15.0 mph24.1 kmh 30.04 in1017.3 mb 0.00 in0.0 mm 0.00 in/hr0.0 mm/hr 0.00 in0.0 mm
07:48 AM 35.6°F2.0°C 26.5°F-3.1°C 69% 13.4 mph WSW21.6 kmh WSW 15.7 mph25.3 kmh 30.03 in1016.9 mb 0.00 in0.0 mm 0.00 in/hr0.0 mm/hr 0.00 in0.0 mm
07:43 AM 35.5°F1.9°C 25.9°F-3.4°C 68% 9.3 mph WSW15.0 kmh WSW 15.7 mph25.3 kmh 30.03 in1016.9 mb 0.00 in0.0 mm 0.00 in/hr0.0 mm/hr 0.00 in0.0 mm
07:38 AM 35.5°F1.9°C 25.9°F-3.4°C 68% 10.8 mph SW17.4 kmh SW 15.7 mph25.3 kmh 30.03 in1016.9 mb 0.00 in0.0 mm 0.00 in/hr0.0 mm/hr 0.00 in0.0 mm
07:33 AM 35.6°F2.0°C 26.1°F-3.3°C 68% 12.9 mph WSW20.8 kmh WSW 17.2 mph27.7 kmh 30.03 in1016.9 mb 0.00 in0.0 mm 0.00 in/hr0.0 mm/hr 0.00 in0.0 mm
07:28 AM 35.5°F1.9°C 26.3°F-3.2°C 69% 13.6 mph W21.9 kmh W 17.2 mph27.7 kmh 30.03 in1016.9 mb 0.00 in0.0 mm 0.00 in/hr0.0 mm/hr 0.00 in0.0 mm
07:23 AM 35.3°F1.8°C 26.5°F-3.1°C 70% 15.9 mph WSW25.6 kmh WSW 17.0 mph27.4 kmh 30.02 in1016.6 mb 0.00 in0.0 mm 0.00 in/hr0.0 mm/hr 0.00 in0.0 mm
07:18 AM 35.3°F1.8°C 26.5°F-3.1°C 70% 16.2 mph WSW26.1 kmh WSW 17.9 mph28.8 kmh 30.02 in1016.6 mb 0.00 in0.0 mm 0.00 in/hr0.0 mm/hr 0.00 in0.0 mm
07:13 AM 35.3°F1.8°C 26.5°F-3.1°C 70% 14.6 mph WSW23.5 kmh WSW 17.9 mph28.8 kmh 30.02 in1016.6 mb 0.00 in0.0 mm 0.00 in/hr0.0 mm/hr 0.00 in0.0 mm
07:08 AM 35.1°F1.7°C 26.3°F-3.2°C 70% 12.6 mph WSW20.3 kmh WSW 15.7 mph25.3 kmh 30.02 in1016.6 mb 0.00 in0.0 mm 0.00 in/hr0.0 mm/hr 0.00 in0.0 mm
07:03 AM 34.9°F1.6°C 26.1°F-3.3°C 70% 14.4 mph WSW23.2 kmh WSW 15.7 mph25.3 kmh 30.02 in1016.6 mb 0.00 in0.0 mm 0.00 in/hr0.0 mm/hr 0.00 in0.0 mm
06:57 AM 34.9°F1.6°C 26.1°F-3.3°C 70% 10.0 mph WSW16.1 kmh WSW 15.7 mph25.3 kmh 30.02 in1016.6 mb 0.00 in0.0 mm 0.00 in/hr0.0 mm/hr 0.00 in0.0 mm
06:52 AM 34.6°F1.4°C 26.1°F-3.3°C 71% 11.9 mph WSW19.2 kmh WSW 16.3 mph26.2 kmh 30.01 in1016.3 mb 0.00 in0.0 mm 0.00 in/hr0.0 mm/hr 0.00 in0.0 mm
06:48 AM 34.6°F1.4°C 26.1°F-3.3°C 71% 12.4 mph WSW20.0 kmh WSW 16.3 mph26.2 kmh 30.01 in1016.3 mb 0.00 in0.0 mm 0.00 in/hr0.0 mm/hr 0.00 in0.0 mm
06:42 AM 34.0°F1.1°C 25.6°F-3.6°C 71% 12.6 mph WSW20.3 kmh WSW 13.9 mph22.4 kmh 30.01 in1016.3 mb 0.00 in0.0 mm 0.00 in/hr0.0 mm/hr 0.00 in0.0 mm
06:37 AM 33.7°F0.9°C 25.2°F-3.8°C 71% 10.1 mph WSW16.3 kmh WSW 13.2 mph21.2 kmh 30.01 in1016.3 mb 0.00 in0.0 mm 0.00 in/hr0.0 mm/hr 0.00 in0.0 mm
06:32 AM 33.1°F0.6°C 25.0°F-3.9°C 72% 9.8 mph WSW15.8 kmh WSW 10.7 mph17.2 kmh 30.01 in1016.3 mb 0.00 in0.0 mm 0.00 in/hr0.0 mm/hr 0.00 in0.0 mm
06:27 AM 32.6°F0.3°C 24.8°F-4.0°C 73% 7.7 mph SW12.4 kmh SW 8.5 mph13.7 kmh 30.01 in1016.3 mb 0.00 in0.0 mm 0.00 in/hr0.0 mm/hr 0.00 in0.0 mm
06:22 AM 32.4°F0.2°C 25.0°F-3.9°C 74% 6.1 mph SW9.8 kmh SW 6.9 mph11.1 kmh 30.01 in1016.3 mb 0.00 in0.0 mm 0.00 in/hr0.0 mm/hr 0.00 in0.0 mm
06:17 AM 32.0°F0.0°C 24.4°F-4.2°C 73% 4.8 mph WSW7.7 kmh WSW 5.6 mph9.0 kmh 30.01 in1016.3 mb 0.00 in0.0 mm 0.00 in/hr0.0 mm/hr 0.00 in0.0 mm
06:12 AM 32.0°F0.0°C 24.4°F-4.2°C 73% 2.7 mph SW4.3 kmh SW 3.8 mph6.1 kmh 30.01 in1016.3 mb 0.00 in0.0 mm 0.00 in/hr0.0 mm/hr 0.00 in0.0 mm
06:07 AM 32.0°F0.0°C 24.4°F-4.2°C 73% 2.3 mph SSW3.7 kmh SSW 2.5 mph4.0 kmh 30.01 in1016.3 mb 0.00 in0.0 mm 0.00 in/hr0.0 mm/hr 0.00 in0.0 mm
06:02 AM 32.2°F0.1°C 24.2°F-4.3°C 72% 1.0 mph SSE1.6 kmh SSE 4.0 mph6.4 kmh 30.01 in1016.3 mb 0.00 in0.0 mm 0.00 in/hr0.0 mm/hr 0.00 in0.0 mm
05:56 AM 32.2°F0.1°C 23.9°F-4.5°C 71% 2.2 mph ESE3.5 kmh ESE 4.0 mph6.4 kmh 30.01 in1016.3 mb 0.00 in0.0 mm 0.00 in/hr0.0 mm/hr 0.00 in0.0 mm
05:51 AM 32.2°F0.1°C 23.6°F-4.7°C 70% 2.4 mph SE3.9 kmh SE 4.5 mph7.2 kmh 30.01 in1016.3 mb 0.00 in0.0 mm 0.00 in/hr0.0 mm/hr 0.00 in0.0 mm
05:46 AM 32.2°F0.1°C 23.6°F-4.7°C 70% 1.8 mph SE2.9 kmh SE 5.1 mph8.2 kmh 30.01 in1016.3 mb 0.00 in0.0 mm 0.00 in/hr0.0 mm/hr 0.00 in0.0 mm
05:41 AM 32.2°F0.1°C 23.2°F-4.9°C 69% 3.8 mph SE6.1 kmh SE 5.1 mph8.2 kmh 30.01 in1016.3 mb 0.00 in0.0 mm 0.00 in/hr0.0 mm/hr 0.00 in0.0 mm
05:36 AM 32.4°F0.2°C 23.4°F-4.8°C 69% 3.5 mph ESE5.6 kmh ESE 4.9 mph7.9 kmh 30.01 in1016.3 mb 0.00 in0.0 mm 0.00 in/hr0.0 mm/hr 0.00 in0.0 mm
05:31 AM 32.4°F0.2°C 23.4°F-4.8°C 69% 2.8 mph ESE4.5 kmh ESE 4.0 mph6.4 kmh 30.01 in1016.3 mb 0.00 in0.0 mm 0.00 in/hr0.0 mm/hr 0.00 in0.0 mm
05:26 AM 32.6°F0.3°C 23.9°F-4.5°C 70% 3.1 mph ENE5.0 kmh ENE 4.0 mph6.4 kmh 30.02 in1016.6 mb 0.00 in0.0 mm 0.00 in/hr0.0 mm/hr 0.00 in0.0 mm
05:22 AM 32.6°F0.3°C 23.1°F-4.9°C 68% 3.8 mph ESE6.1 kmh ESE 4.0 mph6.4 kmh 30.02 in1016.6 mb 0.00 in0.0 mm 0.00 in/hr0.0 mm/hr 0.00 in0.0 mm
05:17 AM 32.8°F0.4°C 23.7°F-4.6°C 69% 3.1 mph ESE5.0 kmh ESE 3.4 mph5.5 kmh 30.02 in1016.6 mb 0.00 in0.0 mm 0.00 in/hr0.0 mm/hr 0.00 in0.0 mm
05:12 AM 32.8°F0.4°C 24.0°F-4.4°C 70% 2.7 mph E4.3 kmh E 2.9 mph4.7 kmh 30.02 in1016.6 mb 0.00 in0.0 mm 0.00 in/hr0.0 mm/hr 0.00 in0.0 mm
05:07 AM 32.9°F0.5°C 24.2°F-4.3°C 70% 2.3 mph E3.7 kmh E 2.7 mph4.3 kmh 30.02 in1016.6 mb 0.00 in0.0 mm 0.00 in/hr0.0 mm/hr 0.00 in0.0 mm
05:02 AM 32.9°F0.5°C 23.9°F-4.5°C 69% 2.0 mph E3.2 kmh E 2.5 mph4.0 kmh 30.02 in1016.6 mb 0.00 in0.0 mm 0.00 in/hr0.0 mm/hr 0.00 in0.0 mm
04:56 AM 33.1°F0.6°C 24.0°F-4.4°C 69% 0.4 mph E0.6 kmh E 3.4 mph5.5 kmh 30.02 in1016.6 mb 0.00 in0.0 mm 0.00 in/hr0.0 mm/hr 0.00 in0.0 mm
04:51 AM 33.3°F0.7°C 23.9°F-4.5°C 68% 2.8 mph ENE4.5 kmh ENE 4.0 mph6.4 kmh 30.02 in1016.6 mb 0.00 in0.0 mm 0.00 in/hr0.0 mm/hr 0.00 in0.0 mm
04:46 AM 33.5°F0.8°C 23.6°F-4.7°C 67% 3.5 mph E5.6 kmh E 4.0 mph6.4 kmh 30.02 in1016.6 mb 0.00 in0.0 mm 0.00 in/hr0.0 mm/hr 0.00 in0.0 mm
04:41 AM 33.5°F0.8°C 23.6°F-4.7°C 67% 1.9 mph E3.1 kmh E 5.6 mph9.0 kmh 30.03 in1016.9 mb 0.00 in0.0 mm 0.00 in/hr0.0 mm/hr 0.00 in0.0 mm
04:36 AM 33.8°F1.0°C 23.9°F-4.5°C 67% 5.2 mph NE8.4 kmh NE 5.6 mph9.0 kmh 30.03 in1016.9 mb 0.00 in0.0 mm 0.00 in/hr0.0 mm/hr 0.00 in0.0 mm
04:31 AM 34.2°F1.2°C 22.5°F-5.3°C 62% 5.5 mph NNE8.9 kmh NNE 5.6 mph9.0 kmh 30.03 in1016.9 mb 0.00 in0.0 mm 0.00 in/hr0.0 mm/hr 0.00 in0.0 mm
04:26 AM 34.4°F1.3°C 22.3°F-5.4°C 61% 3.0 mph N4.8 kmh N 8.9 mph14.3 kmh 30.04 in1017.3 mb 0.00 in0.0 mm 0.00 in/hr0.0 mm/hr 0.00 in0.0 mm
04:21 AM 34.7°F1.5°C 23.0°F-5.0°C 62% 4.1 mph NNW6.6 kmh NNW 9.4 mph15.1 kmh 30.04 in1017.3 mb 0.00 in0.0 mm 0.00 in/hr0.0 mm/hr 0.00 in0.0 mm
04:16 AM 34.7°F1.5°C 22.3°F-5.4°C 60% 7.4 mph W11.9 kmh W 9.4 mph15.1 kmh 30.03 in1016.9 mb 0.00 in0.0 mm 0.00 in/hr0.0 mm/hr 0.00 in0.0 mm
04:11 AM 34.9°F1.6°C 22.5°F-5.3°C 60% 3.5 mph SW5.6 kmh SW 3.8 mph6.1 kmh 30.03 in1016.9 mb 0.00 in0.0 mm 0.00 in/hr0.0 mm/hr 0.00 in0.0 mm
04:06 AM 34.9°F1.6°C 22.5°F-5.3°C 60% 2.9 mph SW4.7 kmh SW 3.4 mph5.5 kmh 30.03 in1016.9 mb 0.00 in0.0 mm 0.00 in/hr0.0 mm/hr 0.00 in0.0 mm
04:01 AM 34.9°F1.6°C 22.1°F-5.5°C 59% 1.9 mph SW3.1 kmh SW 3.1 mph5.0 kmh 30.02 in1016.6 mb 0.00 in0.0 mm 0.00 in/hr0.0 mm/hr 0.00 in0.0 mm
03:56 AM 34.9°F1.6°C 22.1°F-5.5°C 59% 1.0 mph SSW1.6 kmh SSW 4.9 mph7.9 kmh 30.02 in1016.6 mb 0.00 in0.0 mm 0.00 in/hr0.0 mm/hr 0.00 in0.0 mm
03:51 AM 34.9°F1.6°C 21.6°F-5.8°C 58% 2.1 mph SW3.4 kmh SW 4.9 mph7.9 kmh 30.02 in1016.6 mb 0.00 in0.0 mm 0.00 in/hr0.0 mm/hr 0.00 in0.0 mm
03:46 AM 35.1°F1.7°C 21.8°F-5.7°C 58% 2.9 mph WSW4.7 kmh WSW 5.1 mph8.2 kmh 30.02 in1016.6 mb 0.00 in0.0 mm 0.00 in/hr0.0 mm/hr 0.00 in0.0 mm
03:41 AM 35.1°F1.7°C 22.2°F-5.4°C 59% 3.1 mph WSW5.0 kmh WSW 6.7 mph10.8 kmh 30.02 in1016.6 mb 0.00 in0.0 mm 0.00 in/hr0.0 mm/hr 0.00 in0.0 mm
03:36 AM 35.3°F1.8°C 22.0°F-5.6°C 58% 5.6 mph WSW9.0 kmh WSW 6.9 mph11.1 kmh 30.02 in1016.6 mb 0.00 in0.0 mm 0.00 in/hr0.0 mm/hr 0.00 in0.0 mm
03:31 AM 35.3°F1.8°C 22.9°F-5.1°C 60% 6.5 mph W10.5 kmh W 8.5 mph13.7 kmh 30.02 in1016.6 mb 0.00 in0.0 mm 0.00 in/hr0.0 mm/hr 0.00 in0.0 mm
03:26 AM 35.3°F1.8°C 23.2°F-4.9°C 61% 8.1 mph WSW13.0 kmh WSW 9.8 mph15.8 kmh 30.02 in1016.6 mb 0.00 in0.0 mm 0.00 in/hr0.0 mm/hr 0.00 in0.0 mm
03:21 AM 35.3°F1.8°C 22.4°F-5.3°C 59% 5.8 mph W9.3 kmh W 11.2 mph18.0 kmh 30.02 in1016.6 mb 0.00 in0.0 mm 0.00 in/hr0.0 mm/hr 0.00 in0.0 mm
03:16 AM 34.9°F1.6°C 22.5°F-5.3°C 60% 9.4 mph WSW15.1 kmh WSW 11.2 mph18.0 kmh 30.03 in1016.9 mb 0.00 in0.0 mm 0.00 in/hr0.0 mm/hr 0.00 in0.0 mm
03:11 AM 34.2°F1.2°C 17.9°F-7.8°C 51% 5.5 mph W8.9 kmh W 5.6 mph9.0 kmh 30.02 in1016.6 mb 0.00 in0.0 mm 0.00 in/hr0.0 mm/hr 0.00 in0.0 mm
03:06 AM 34.0°F1.1°C 17.3°F-8.2°C 50% 1.5 mph W2.4 kmh W 2.2 mph3.5 kmh 30.02 in1016.6 mb 0.00 in0.0 mm 0.00 in/hr0.0 mm/hr 0.00 in0.0 mm
03:01 AM 33.7°F0.9°C 16.5°F-8.6°C 49% 1.6 mph SSE2.6 kmh SSE 2.2 mph3.5 kmh 30.02 in1016.6 mb 0.00 in0.0 mm 0.00 in/hr0.0 mm/hr 0.00 in0.0 mm
02:56 AM 33.7°F0.9°C 16.5°F-8.6°C 49% 0.9 mph S1.4 kmh S 1.1 mph1.8 kmh 30.02 in1016.6 mb 0.00 in0.0 mm 0.00 in/hr0.0 mm/hr 0.00 in0.0 mm
02:51 AM 33.7°F0.9°C 15.9°F-8.9°C 48% 0.2 mph SSE0.3 kmh SSE 0.4 mph0.6 kmh 30.02 in1016.6 mb 0.00 in0.0 mm 0.00 in/hr0.0 mm/hr 0.00 in0.0 mm
02:46 AM 33.8°F1.0°C 16.1°F-8.8°C 48% Calm Calm 2.2 mph3.5 kmh 30.03 in1016.9 mb 0.00 in0.0 mm 0.00 in/hr0.0 mm/hr 0.00 in0.0 mm
02:41 AM 33.8°F1.0°C 16.1°F-8.8°C 48% Calm Calm 2.5 mph4.0 kmh 30.02 in1016.6 mb 0.00 in0.0 mm 0.00 in/hr0.0 mm/hr 0.00 in0.0 mm
02:36 AM 33.8°F1.0°C 16.1°F-8.8°C 48% 1.3 mph SSW2.1 kmh SSW 2.5 mph4.0 kmh 30.03 in1016.9 mb 0.00 in0.0 mm 0.00 in/hr0.0 mm/hr 0.00 in0.0 mm
02:31 AM 33.5°F0.8°C 15.8°F-9.0°C 48% 1.8 mph WSW2.9 kmh WSW 1.8 mph2.9 kmh 30.03 in1016.9 mb 0.00 in0.0 mm 0.00 in/hr0.0 mm/hr 0.00 in0.0 mm
02:26 AM 33.1°F0.6°C 14.9°F-9.5°C 47% Calm Calm 3.6 mph5.8 kmh 30.03 in1016.9 mb 0.00 in0.0 mm 0.00 in/hr0.0 mm/hr 0.00 in0.0 mm
02:21 AM 32.6°F0.3°C 14.9°F-9.5°C 48% 2.1 mph NW3.4 kmh NW 3.6 mph5.8 kmh 30.03 in1016.9 mb 0.00 in0.0 mm 0.00 in/hr0.0 mm/hr 0.00 in0.0 mm
02:16 AM 31.9°F-0.1°C 13.8°F-10.1°C 47% Calm Calm 3.6 mph5.8 kmh 30.03 in1016.9 mb 0.00 in0.0 mm 0.00 in/hr0.0 mm/hr 0.00 in0.0 mm
02:11 AM 31.5°F-0.3°C 13.0°F-10.6°C 46% 0.7 mph 1.1 kmh 3.6 mph5.8 kmh 30.03 in1016.9 mb 0.00 in0.0 mm 0.00 in/hr0.0 mm/hr 0.00 in0.0 mm
02:06 AM 31.3°F-0.4°C 12.8°F-10.7°C 46% Calm Calm 1.3 mph2.1 kmh 30.03 in1016.9 mb 0.00 in0.0 mm 0.00 in/hr0.0 mm/hr 0.00 in0.0 mm
02:01 AM 31.0°F-0.6°C 12.5°F-10.8°C 46% 0.9 mph NNE1.4 kmh NNE 1.3 mph2.1 kmh 30.03 in1016.9 mb 0.00 in0.0 mm 0.00 in/hr0.0 mm/hr 0.00 in0.0 mm
01:55 AM 30.8°F-0.7°C 12.9°F-10.6°C 47% Calm Calm -- 30.04 in1017.3 mb 0.00 in0.0 mm 0.00 in/hr0.0 mm/hr 0.00 in0.0 mm
01:50 AM 30.8°F-0.7°C 12.3°F-10.9°C 46% Calm Calm 2.5 mph4.0 kmh 30.04 in1017.3 mb 0.00 in0.0 mm 0.00 in/hr0.0 mm/hr 0.00 in0.0 mm
01:45 AM 30.6°F-0.8°C 12.2°F-11.0°C 46% Calm Calm 2.5 mph4.0 kmh 30.04 in1017.3 mb 0.00 in0.0 mm 0.00 in/hr0.0 mm/hr 0.00 in0.0 mm
01:40 AM 30.6°F-0.8°C 12.2°F-11.0°C 46% 2.0 mph E3.2 kmh E 2.9 mph4.7 kmh 30.04 in1017.3 mb 0.00 in0.0 mm 0.00 in/hr0.0 mm/hr 0.00 in0.0 mm
01:35 AM 30.8°F-0.7°C 11.8°F-11.2°C 45% 2.5 mph N4.0 kmh N 2.9 mph4.7 kmh 30.04 in1017.3 mb 0.00 in0.0 mm 0.00 in/hr0.0 mm/hr 0.00 in0.0 mm
01:31 AM 30.8°F-0.7°C 12.3°F-10.9°C 46% 1.5 mph SE2.4 kmh SE 3.1 mph5.0 kmh 30.04 in1017.3 mb 0.00 in0.0 mm 0.00 in/hr0.0 mm/hr 0.00 in0.0 mm
01:26 AM 30.8°F-0.7°C 12.3°F-10.9°C 46% 2.6 mph S4.2 kmh S 3.1 mph5.0 kmh 30.04 in1017.3 mb 0.00 in0.0 mm 0.00 in/hr0.0 mm/hr 0.00 in0.0 mm
01:21 AM 30.6°F-0.8°C 12.2°F-11.0°C 46% 1.1 mph SW1.8 kmh SW 3.8 mph6.1 kmh 30.04 in1017.3 mb 0.00 in0.0 mm 0.00 in/hr0.0 mm/hr 0.00 in0.0 mm
01:16 AM 30.4°F-0.9°C 12.0°F-11.1°C 46% 0.8 mph 1.3 kmh 3.8 mph6.1 kmh 30.04 in1017.3 mb 0.00 in0.0 mm 0.00 in/hr0.0 mm/hr 0.00 in0.0 mm
01:11 AM 30.2°F-1.0°C 11.9°F-11.2°C 46% 1.9 mph NW3.1 kmh NW 2.2 mph3.5 kmh 30.04 in1017.3 mb 0.00 in0.0 mm 0.00 in/hr0.0 mm/hr 0.00 in0.0 mm
01:06 AM 29.9°F-1.2°C 11.5°F-11.4°C 46% 2.1 mph NNW3.4 kmh NNW 2.2 mph3.5 kmh 30.04 in1017.3 mb 0.00 in0.0 mm 0.00 in/hr0.0 mm/hr 0.00 in0.0 mm
01:01 AM 29.9°F-1.2°C 11.0°F-11.7°C 45% 1.7 mph 2.7 kmh 2.0 mph3.2 kmh 30.04 in1017.3 mb 0.00 in0.0 mm 0.00 in/hr0.0 mm/hr 0.00 in0.0 mm
12:55 AM 29.9°F-1.2°C 11.0°F-11.7°C 45% 1.7 mph NNW2.7 kmh NNW 2.9 mph4.7 kmh 30.04 in1017.3 mb 0.00 in0.0 mm 0.00 in/hr0.0 mm/hr 0.00 in0.0 mm
12:50 AM 29.9°F-1.2°C 11.0°F-11.7°C 45% 1.5 mph NNW2.4 kmh NNW 2.9 mph4.7 kmh 30.04 in1017.3 mb 0.00 in0.0 mm 0.00 in/hr0.0 mm/hr 0.00 in0.0 mm
12:45 AM 30.1°F-1.1°C 11.2°F-11.6°C 45% 1.7 mph 2.7 kmh 1.8 mph2.9 kmh 30.04 in1017.3 mb 0.00 in0.0 mm 0.00 in/hr0.0 mm/hr 0.00 in0.0 mm
12:40 AM 30.2°F-1.0°C 11.3°F-11.5°C 45% 0.4 mph 0.6 kmh 1.6 mph2.6 kmh 30.05 in1017.6 mb 0.00 in0.0 mm 0.00 in/hr0.0 mm/hr 0.00 in0.0 mm
12:35 AM 30.2°F-1.0°C 10.8°F-11.8°C 44% Calm Calm 4.0 mph6.4 kmh 30.05 in1017.6 mb 0.00 in0.0 mm 0.00 in/hr0.0 mm/hr 0.00 in0.0 mm
12:30 AM 30.6°F-0.8°C 11.2°F-11.6°C 44% 3.0 mph 4.8 kmh 4.0 mph6.4 kmh 30.05 in1017.6 mb 0.00 in0.0 mm 0.00 in/hr0.0 mm/hr 0.00 in0.0 mm
12:25 AM 30.8°F-0.7°C 11.4°F-11.4°C 44% 0.9 mph NNE1.4 kmh NNE 3.6 mph5.8 kmh 30.05 in1017.6 mb 0.00 in0.0 mm 0.00 in/hr0.0 mm/hr 0.00 in0.0 mm
12:20 AM 30.8°F-0.7°C 11.4°F-11.4°C 44% Calm Calm 4.5 mph7.2 kmh 30.05 in1017.6 mb 0.00 in0.0 mm 0.00 in/hr0.0 mm/hr 0.00 in0.0 mm
12:15 AM 30.6°F-0.8°C 11.2°F-11.6°C 44% 4.3 mph NE6.9 kmh NE 4.5 mph7.2 kmh 30.05 in1017.6 mb 0.00 in0.0 mm 0.00 in/hr0.0 mm/hr 0.00 in0.0 mm
12:10 AM 30.4°F-0.9°C 11.0°F-11.7°C 44% 3.0 mph NE4.8 kmh NE 3.4 mph5.5 kmh 30.05 in1017.6 mb 0.00 in0.0 mm 0.00 in/hr0.0 mm/hr 0.00 in0.0 mm
12:05 AM 30.6°F-0.8°C 11.2°F-11.6°C 44% 1.9 mph ESE3.1 kmh ESE 3.6 mph5.8 kmh 30.06 in1017.9 mb 0.00 in0.0 mm 0.00 in/hr0.0 mm/hr 0.00 in0.0 mm
12:01 AM 30.6°F-0.8°C 11.2°F-11.6°C 44% 2.5 mph ENE4.0 kmh ENE 3.6 mph5.8 kmh 30.06 in1017.9 mb 0.00 in0.0 mm 0.00 in/hr0.0 mm/hr 0.00 in0.0 mm